Detall de PIREP

Printer-friendly versionPDF version

[2009/11/28 08:56:00]
Flight IATA:CT3129
Pilot Number:011
Company ICAO:CAT
Aircraft Type:F50/A
PAX:50
Departing Airport: LEZG
Destination Airport: LEVC
Alternate Airport:LEPA
Online: VATSIM
Route:PONEN W800 CASPE A34 SAURA
Flight Level:FL190
No Slew and time accel
No pause
Crash detect
Detect pilot in Cockpit between each 30 and 45 minutes
08:56 Zero fuel Weight: 41685 Lbs, Fuel Weight: 2180 Lbs
08:56 VATSIM:LEZG 280830Z 08005KT 9999 FEW045 05/04 Q1021
08:56 VATSIM:LEVC 280830Z 28006KT 250V320 CAVOK 12/05 Q1022 NOSIG
08:59 Parking Brakes off
09:07 Take-off
09:07 Take off Weight: 43787 Lbs
09:07 Wind: 083 @ 005 Knots Heading: 113
09:07 POS N41 39 47 W001 01 35
09:09 Gear Up: 121 Knots
09:09 Flaps:3 at 121 Knots
09:10 Flaps:2 at 159 Knots
09:10 Flaps:1 at 165 Knots
09:11 Flaps:0 at 170 Knots
09:24 Wind:097@006 Knots Heading: 102 Ground Speed: 232 Knot
s Altitude 17047 ft
09:27 TOC
09:27 Fuel Weight: 1640 Lb
09:35 TOD
09:35 Fuel Weight: 1432 Lb
09:39 Wind:272@010 Knots Heading: 196 Ground Speed: 236 Knots Altitude 14812 ft
09:54 Wind:280@016 Knots Heading: 182 Ground Speed: 199 Knots Altitude 3513 ft
09:56 Flaps:1 at 169 Knots
09:56 Flaps:2 at 167 Knots
09:56 Flaps:3 at 157 Knots
09:57 Flaps:4 at 130 Knots
10:00 Flaps:5 at 124 Knots
10:00 Gear Down: 124 Knots
10:01 Flaps:6 at 113 Knots
10:06 TouchDown:Rate -277 ft/min Speed: 86 Knots
10:07 VATSIM:LEVC 280930Z 28010KT CAVOK 14/04 Q1022 NOSIG
10:07 Land
10:07 Wind:283@010 Knots
10:07 Heading: 298
10:07 Flight Duration: 01:00
10:07 Landing Weight: 42761 Lbs
10:07 POS N39 29 13 W000 28 33
10:11 Parking brakes on
10:11 Block to Block Duration: 01:12
10:11 Final Fuel: 1047 Lbls
10:11 Spent Fuel: 1133 Lbls
10:11 Flight Length: 172 NM
10:11
TOD Land Length: 77 NM

Exportar CSV

Powered by Drupal - Modified by Danger4k